createdAt,value
2023-02-15T00:00:41.626Z,99.90
2023-02-15T00:03:09.410Z,99.90
2023-02-15T00:05:38.460Z,99.90
2023-02-15T00:08:06.325Z,99.90
2023-02-15T00:10:34.066Z,99.90
2023-02-15T00:13:02.225Z,99.90
2023-02-15T00:15:29.928Z,99.90
2023-02-15T00:17:58.990Z,99.90
2023-02-15T00:20:26.708Z,99.90
2023-02-15T00:22:55.812Z,99.90
2023-02-15T00:25:23.535Z,99.90
2023-02-15T00:27:51.760Z,99.90
2023-02-15T00:30:19.711Z,99.90
2023-02-15T00:32:49.484Z,99.90
2023-02-15T00:35:17.467Z,99.90
2023-02-15T00:37:45.190Z,99.90
2023-02-15T00:40:14.670Z,99.90
2023-02-15T00:42:42.385Z,99.90
2023-02-15T00:45:10.958Z,99.90
2023-02-15T00:47:38.684Z,99.90
2023-02-15T00:50:07.876Z,99.90
2023-02-15T00:52:35.634Z,99.90
2023-02-15T00:55:03.332Z,99.90
2023-02-15T00:57:32.423Z,99.90
2023-02-15T01:00:00.195Z,99.90
2023-02-15T01:02:28.012Z,99.90
2023-02-15T01:04:55.996Z,99.90
2023-02-15T01:07:23.792Z,99.90
2023-02-15T01:09:54.867Z,99.90
2023-02-15T01:12:22.615Z,99.90
2023-02-15T01:14:51.657Z,99.90
2023-02-15T01:17:19.431Z,99.90
2023-02-15T01:19:47.136Z,99.90
2023-02-15T01:22:14.856Z,99.90
2023-02-15T01:24:43.382Z,99.90
2023-02-15T01:27:11.111Z,99.90
2023-02-15T01:29:38.830Z,99.90
2023-02-15T01:32:07.899Z,99.90
2023-02-15T01:34:35.680Z,99.90
2023-02-15T01:37:03.414Z,99.90
2023-02-15T01:39:34.517Z,99.90
2023-02-15T01:42:02.262Z,99.90
2023-02-15T01:44:53.659Z,99.90
2023-02-15T01:47:34.533Z,99.90
2023-02-15T01:50:11.863Z,99.90
2023-02-15T01:52:42.606Z,99.90
2023-02-15T01:55:11.116Z,99.90
2023-02-15T01:57:39.013Z,99.90
2023-02-15T02:00:09.094Z,99.90
2023-02-15T02:02:38.207Z,99.90
2023-02-15T02:05:08.795Z,99.90
2023-02-15T02:07:40.036Z,99.90
2023-02-15T02:10:11.371Z,99.90
2023-02-15T02:12:41.746Z,99.90
2023-02-15T02:15:10.406Z,99.90
2023-02-15T02:17:56.159Z,99.90
2023-02-15T02:20:54.908Z,99.90
2023-02-15T02:23:34.657Z,99.90
2023-02-15T02:26:35.408Z,99.90
2023-02-15T02:29:51.970Z,99.90
2023-02-15T02:32:50.157Z,99.90
2023-02-15T02:35:24.253Z,99.90
2023-02-15T02:38:02.944Z,99.90
2023-02-15T02:40:43.355Z,99.90
2023-02-15T02:43:19.125Z,99.90
2023-02-15T02:46:08.959Z,99.90
2023-02-15T02:48:36.948Z,99.90
2023-02-15T02:51:06.026Z,99.90
2023-02-15T02:53:35.682Z,99.90
2023-02-15T02:56:10.672Z,99.90
2023-02-15T02:58:44.693Z,99.90
2023-02-15T03:01:17.667Z,99.90
2023-02-15T03:03:48.479Z,99.90
2023-02-15T03:06:21.310Z,99.90
2023-02-15T03:08:52.845Z,99.90
2023-02-15T03:11:20.631Z,99.90
2023-02-15T03:13:50.534Z,99.90
2023-02-15T03:16:27.483Z,99.90
2023-02-15T03:18:59.111Z,99.90
2023-02-15T03:21:34.344Z,99.90
2023-02-15T03:24:06.775Z,99.90
2023-02-15T03:26:36.427Z,99.90
2023-02-15T03:29:06.977Z,99.90
2023-02-15T03:31:40.434Z,99.90
2023-02-15T03:34:12.097Z,99.90
2023-02-15T03:36:46.649Z,99.90
2023-02-15T03:39:20.521Z,99.90
2023-02-15T03:41:56.832Z,99.90
2023-02-15T03:44:30.161Z,99.90
2023-02-15T03:47:05.995Z,99.90
2023-02-15T03:49:42.831Z,99.90
2023-02-15T03:52:14.993Z,99.90
2023-02-15T03:54:47.013Z,99.90
2023-02-15T03:57:36.581Z,99.90
2023-02-15T04:00:25.651Z,99.90
2023-02-15T04:03:19.217Z,99.90
2023-02-15T04:05:47.244Z,99.90
2023-02-15T04:08:16.304Z,99.90
2023-02-15T04:10:56.292Z,99.90
2023-02-15T04:13:26.207Z,99.90
2023-02-15T04:16:05.288Z,99.90
2023-02-15T04:18:52.001Z,99.90
2023-02-15T04:21:38.070Z,99.90
2023-02-15T04:24:25.245Z,99.90
2023-02-15T04:26:54.411Z,99.90
2023-02-15T04:29:23.342Z,99.90
2023-02-15T04:31:51.907Z,99.90
2023-02-15T04:34:20.123Z,99.90
2023-02-15T04:36:47.963Z,99.90
2023-02-15T04:39:18.715Z,99.90
2023-02-15T04:41:46.753Z,99.90
2023-02-15T04:44:14.607Z,99.90
2023-02-15T04:46:42.380Z,99.90
2023-02-15T04:49:10.699Z,99.90
2023-02-15T04:51:38.481Z,99.90
2023-02-15T04:54:06.314Z,99.90
2023-02-15T04:56:35.890Z,99.90
2023-02-15T04:59:03.629Z,99.90
2023-02-15T05:01:31.797Z,99.90
2023-02-15T05:03:59.673Z,99.90
2023-02-15T05:06:27.512Z,99.90
2023-02-15T05:08:55.272Z,99.90
2023-02-15T05:11:22.998Z,99.90
2023-02-15T05:13:52.046Z,99.90
2023-02-15T05:16:19.917Z,99.90
2023-02-15T05:18:47.682Z,99.90
2023-02-15T05:21:18.881Z,99.90
2023-02-15T05:23:46.644Z,99.90
2023-02-15T05:26:35.606Z,99.90
2023-02-15T05:29:05.176Z,99.90
2023-02-15T05:31:35.457Z,99.90
2023-02-15T05:34:03.907Z,99.90
2023-02-15T05:36:31.633Z,99.90
2023-02-15T05:38:59.362Z,99.90
2023-02-15T05:41:27.081Z,99.90
2023-02-15T05:43:57.152Z,99.90
2023-02-15T05:46:26.255Z,99.90
2023-02-15T05:48:54.090Z,99.90
2023-02-15T05:51:21.871Z,99.90
2023-02-15T05:53:49.623Z,99.90
2023-02-15T05:56:17.369Z,99.90
2023-02-15T05:58:45.109Z,99.90
2023-02-15T06:01:13.796Z,99.90
2023-02-15T06:03:43.521Z,99.90
2023-02-15T06:06:11.773Z,99.90
2023-02-15T06:08:40.273Z,99.90
2023-02-15T06:11:08.673Z,99.90
2023-02-15T06:13:38.901Z,99.90
2023-02-15T06:16:07.022Z,99.90
2023-02-15T06:18:34.959Z,99.90
2023-02-15T06:21:04.259Z,99.90
2023-02-15T06:23:32.115Z,99.90
2023-02-15T06:25:59.895Z,99.90
2023-02-15T06:28:27.725Z,99.90
2023-02-15T06:30:55.639Z,99.90
2023-02-15T06:33:23.795Z,99.90
2023-02-15T06:35:51.711Z,99.90
2023-02-15T06:38:20.769Z,99.90
2023-02-15T06:40:48.647Z,99.90
2023-02-15T06:43:16.398Z,99.90
2023-02-15T06:45:47.547Z,99.90
2023-02-15T06:48:15.302Z,99.90
2023-02-15T06:50:46.370Z,99.90
2023-02-15T06:53:14.083Z,99.90
2023-02-15T06:55:43.102Z,99.90
2023-02-15T06:58:10.840Z,99.90
2023-02-15T07:00:38.585Z,99.90
2023-02-15T07:03:06.307Z,99.90
2023-02-15T07:05:35.949Z,99.90
2023-02-15T07:08:03.808Z,99.90
2023-02-15T07:10:31.640Z,99.90
2023-02-15T07:12:59.781Z,99.90
2023-02-15T07:15:27.515Z,99.90
2023-02-15T07:17:55.252Z,99.90
2023-02-15T07:20:24.675Z,99.90
2023-02-15T07:22:52.905Z,99.90
2023-02-15T07:25:20.663Z,99.90
2023-02-15T07:27:48.471Z,99.90
2023-02-15T07:30:19.159Z,99.90
2023-02-15T07:33:09.770Z,99.90
2023-02-15T07:35:37.720Z,99.90
2023-02-15T07:38:05.444Z,99.90
2023-02-15T07:40:33.156Z,99.90
2023-02-15T07:43:00.934Z,99.90
2023-02-15T07:45:30.015Z,99.90
2023-02-15T07:47:57.775Z,99.90
2023-02-15T07:50:25.672Z,99.90
2023-02-15T07:52:53.390Z,99.90
2023-02-15T07:55:21.191Z,99.90
2023-02-15T07:57:50.665Z,99.90
2023-02-15T08:00:21.097Z,99.90
2023-02-15T08:03:12.824Z,99.90
2023-02-15T08:05:41.449Z,99.90
2023-02-15T08:08:09.500Z,99.90
2023-02-15T08:10:55.202Z,99.90
2023-02-15T08:13:22.955Z,99.90
2023-02-15T08:15:51.144Z,99.90
2023-02-15T08:18:20.343Z,99.90
2023-02-15T08:20:51.269Z,99.90
2023-02-15T08:23:19.045Z,99.90
2023-02-15T08:25:46.727Z,99.90
2023-02-15T08:28:16.956Z,99.90
2023-02-15T08:30:44.737Z,99.90
2023-02-15T08:33:12.442Z,99.90
2023-02-15T08:35:41.486Z,99.90
2023-02-15T08:38:09.210Z,99.90
2023-02-15T08:40:39.008Z,99.90
2023-02-15T08:43:08.054Z,99.90
2023-02-15T08:45:36.044Z,99.90
2023-02-15T08:48:03.907Z,99.90
2023-02-15T08:50:32.076Z,99.90
2023-02-15T08:53:01.120Z,99.90
2023-02-15T08:55:29.009Z,99.90
2023-02-15T08:57:56.725Z,99.90
2023-02-15T09:00:26.039Z,99.90
2023-02-15T09:02:54.233Z,99.90
2023-02-15T09:05:21.966Z,99.90
2023-02-15T09:07:49.746Z,99.90
2023-02-15T09:10:19.050Z,99.90
2023-02-15T09:12:46.737Z,99.90
2023-02-15T09:15:14.437Z,99.90
2023-02-15T09:17:42.139Z,99.90
2023-02-15T09:20:10.647Z,99.90
2023-02-15T09:22:38.360Z,99.90
2023-02-15T09:25:06.543Z,99.90
2023-02-15T09:27:35.890Z,99.90
2023-02-15T09:30:03.666Z,99.90
2023-02-15T09:32:31.410Z,99.90
2023-02-15T09:34:59.648Z,99.90
2023-02-15T09:37:27.340Z,99.90
2023-02-15T09:39:55.558Z,99.90
2023-02-15T09:42:56.392Z,99.90
2023-02-15T09:45:44.211Z,99.90
2023-02-15T09:48:35.827Z,99.90
2023-02-15T09:51:29.215Z,99.90
2023-02-15T09:54:12.693Z,99.90
2023-02-15T09:56:45.523Z,99.90
2023-02-15T09:59:21.600Z,99.90
2023-02-15T10:02:00.392Z,99.90
2023-02-15T10:04:49.596Z,85.80
2023-02-15T10:07:29.114Z,71.60
2023-02-15T10:10:10.260Z,66.80
2023-02-15T10:13:14.548Z,58.30
2023-02-15T10:15:56.747Z,53.20
2023-02-15T10:18:49.347Z,54.20
2023-02-15T10:21:31.749Z,53.40
2023-02-15T10:24:17.062Z,54.20
2023-02-15T10:26:46.806Z,53.60
2023-02-15T10:29:25.325Z,51.40
2023-02-15T10:32:02.903Z,50.20
2023-02-15T10:34:39.317Z,49.80
2023-02-15T10:37:25.083Z,51.30
2023-02-15T10:40:02.033Z,50.10
2023-02-15T10:42:45.989Z,49.00
2023-02-15T10:45:22.964Z,48.90
2023-02-15T10:48:14.426Z,46.70
2023-02-15T10:50:49.374Z,47.30
2023-02-15T10:53:49.991Z,49.00
2023-02-15T10:56:22.728Z,47.40
2023-02-15T10:59:17.151Z,47.80
2023-02-15T11:01:50.995Z,46.50
2023-02-15T11:04:44.517Z,45.40
2023-02-15T11:07:18.288Z,46.00
2023-02-15T11:09:51.178Z,44.90
2023-02-15T11:12:24.265Z,46.90
2023-02-15T11:14:57.329Z,47.80
2023-02-15T11:17:30.228Z,48.30
2023-02-15T11:20:09.629Z,51.40
2023-02-15T11:22:38.060Z,51.40
2023-02-15T11:25:19.679Z,49.40
2023-02-15T11:27:49.532Z,50.10
2023-02-15T11:30:21.394Z,50.60
2023-02-15T11:32:52.173Z,51.20
2023-02-15T11:35:29.491Z,51.90
2023-02-15T11:38:04.858Z,54.40
2023-02-15T11:40:36.171Z,54.70
2023-02-15T11:43:07.295Z,57.50
2023-02-15T11:45:36.760Z,60.30
2023-02-15T11:48:12.602Z,62.80
2023-02-15T11:50:42.837Z,65.20
2023-02-15T11:53:14.518Z,75.60
2023-02-15T11:55:44.924Z,96.90
2023-02-15T11:58:21.150Z,99.90
2023-02-15T12:00:52.111Z,99.90
2023-02-15T12:03:24.358Z,99.90
2023-02-15T12:06:05.622Z,99.90
2023-02-15T12:08:40.683Z,99.90
2023-02-15T12:11:13.277Z,99.90
2023-02-15T12:13:57.263Z,99.90
2023-02-15T12:16:25.204Z,99.90
2023-02-15T12:18:55.284Z,99.90
2023-02-15T12:21:32.619Z,99.90
2023-02-15T12:24:05.151Z,99.90
2023-02-15T12:26:36.339Z,99.90
2023-02-15T12:29:14.564Z,99.90
2023-02-15T12:31:46.271Z,99.90
2023-02-15T12:34:19.985Z,99.90
2023-02-15T12:36:55.283Z,99.90
2023-02-15T12:39:27.022Z,99.90
2023-02-15T12:42:05.511Z,99.90
2023-02-15T12:44:34.624Z,99.90
2023-02-15T12:47:04.992Z,99.90
2023-02-15T12:49:34.391Z,99.90
2023-02-15T12:52:04.958Z,99.90
2023-02-15T12:54:39.669Z,99.90
2023-02-15T12:57:27.442Z,99.90
2023-02-15T12:59:57.994Z,99.90
2023-02-15T13:02:31.994Z,99.90
2023-02-15T13:05:09.868Z,99.90
2023-02-15T13:07:39.418Z,99.90
2023-02-15T13:10:23.491Z,99.90
2023-02-15T13:12:54.942Z,99.90
2023-02-15T13:15:34.409Z,99.90
2023-02-15T13:18:03.562Z,99.90
2023-02-15T13:20:31.975Z,99.90
2023-02-15T13:23:06.187Z,99.90
2023-02-15T13:25:42.388Z,99.90
2023-02-15T13:28:15.713Z,99.90
2023-02-15T13:30:46.398Z,99.90
2023-02-15T13:33:19.482Z,99.90
2023-02-15T13:35:57.871Z,99.90
2023-02-15T13:38:46.089Z,99.90
2023-02-15T13:41:16.972Z,99.90
2023-02-15T13:43:55.250Z,99.90
2023-02-15T13:46:36.807Z,99.90
2023-02-15T13:49:17.958Z,99.90
2023-02-15T13:51:54.076Z,99.90
2023-02-15T13:54:37.487Z,99.90
2023-02-15T13:57:23.506Z,99.90
2023-02-15T14:00:05.008Z,99.90
2023-02-15T14:02:53.230Z,99.90
2023-02-15T14:05:31.864Z,99.90
2023-02-15T14:08:11.080Z,99.90
2023-02-15T14:10:53.465Z,99.90
2023-02-15T14:14:04.229Z,99.90
2023-02-15T14:16:41.231Z,99.90
2023-02-15T14:19:17.000Z,99.90
2023-02-15T14:21:50.546Z,99.90
2023-02-15T14:24:29.402Z,99.90
2023-02-15T14:27:07.842Z,99.90
2023-02-15T14:29:48.610Z,99.90
2023-02-15T14:32:22.620Z,99.90
2023-02-15T14:34:54.871Z,99.90
2023-02-15T14:37:33.167Z,99.90
2023-02-15T14:40:39.937Z,99.90
2023-02-15T14:43:17.902Z,99.90
2023-02-15T14:45:51.892Z,99.90
2023-02-15T14:48:27.626Z,99.90
2023-02-15T14:50:55.583Z,99.90
2023-02-15T14:53:39.219Z,99.90
2023-02-15T14:56:20.288Z,99.90
2023-02-15T14:59:00.806Z,99.90
2023-02-15T15:01:31.812Z,99.90
2023-02-15T15:04:02.367Z,99.90
2023-02-15T15:06:33.779Z,99.90
2023-02-15T15:09:12.436Z,99.90
2023-02-15T15:11:44.849Z,99.90
2023-02-15T15:14:44.689Z,99.90
2023-02-15T15:17:14.731Z,99.90
2023-02-15T15:20:35.462Z,99.90
2023-02-15T15:23:42.957Z,99.90
2023-02-15T15:26:26.876Z,99.90
2023-02-15T15:29:02.889Z,99.90
2023-02-15T15:31:45.042Z,99.90
2023-02-15T15:34:46.900Z,99.90
2023-02-15T15:37:59.293Z,99.90
2023-02-15T15:41:21.092Z,99.90
2023-02-15T15:44:32.992Z,99.90
2023-02-15T15:47:23.393Z,99.90
2023-02-15T15:49:51.579Z,99.90
2023-02-15T15:52:22.255Z,99.90
2023-02-15T15:54:53.585Z,99.90
2023-02-15T15:57:29.583Z,99.90
2023-02-15T16:00:00.586Z,99.90
2023-02-15T16:02:29.985Z,99.90
2023-02-15T16:05:08.800Z,99.90
2023-02-15T16:07:37.511Z,99.90
2023-02-15T16:10:08.304Z,99.90
2023-02-15T16:12:38.099Z,99.90
2023-02-15T16:15:15.351Z,99.90
2023-02-15T16:17:47.062Z,99.90
2023-02-15T16:20:20.252Z,99.90
2023-02-15T16:22:49.833Z,99.90
2023-02-15T16:25:32.733Z,99.90
2023-02-15T16:28:08.458Z,99.90
2023-02-15T16:30:38.268Z,99.90
2023-02-15T16:33:09.742Z,99.90
2023-02-15T16:35:39.651Z,99.90
2023-02-15T16:38:10.760Z,99.90
2023-02-15T16:40:48.669Z,99.90
2023-02-15T16:43:22.107Z,99.90
2023-02-15T16:45:50.119Z,99.90
2023-02-15T16:48:23.576Z,99.90
2023-02-15T16:50:55.054Z,99.90
2023-02-15T16:53:25.404Z,99.90
2023-02-15T16:55:56.305Z,99.90
2023-02-15T16:58:30.620Z,99.90
2023-02-15T17:01:00.843Z,99.90
2023-02-15T17:03:30.551Z,99.90
2023-02-15T17:05:59.824Z,99.90
2023-02-15T17:08:30.476Z,99.90
2023-02-15T17:11:11.831Z,99.90
2023-02-15T17:13:40.664Z,99.90
2023-02-15T17:16:28.795Z,99.90
2023-02-15T17:18:59.455Z,99.90
2023-02-15T17:21:32.805Z,99.90
2023-02-15T17:24:02.229Z,99.90
2023-02-15T17:26:33.164Z,99.90
2023-02-15T17:29:03.481Z,99.90
2023-02-15T17:31:34.911Z,99.90
2023-02-15T17:34:05.639Z,99.90
2023-02-15T17:36:33.784Z,99.90
2023-02-15T17:39:06.740Z,99.90
2023-02-15T17:41:36.257Z,99.90
2023-02-15T17:44:05.122Z,99.90
2023-02-15T17:46:36.375Z,99.90
2023-02-15T17:49:06.208Z,99.90
2023-02-15T17:51:35.986Z,99.90
2023-02-15T17:54:21.455Z,99.90
2023-02-15T17:56:49.241Z,99.90
2023-02-15T17:59:16.966Z,99.90
2023-02-15T18:02:05.824Z,99.90
2023-02-15T18:04:55.484Z,99.90
2023-02-15T18:07:41.238Z,99.90
2023-02-15T18:10:32.615Z,99.90
2023-02-15T18:13:00.364Z,99.90
2023-02-15T18:15:28.506Z,99.90
2023-02-15T18:17:56.679Z,99.90
2023-02-15T18:20:30.176Z,99.90
2023-02-15T18:22:58.239Z,99.90
2023-02-15T18:25:26.194Z,99.90
2023-02-15T18:27:55.395Z,99.90
2023-02-15T18:30:26.496Z,99.90
2023-02-15T18:32:56.813Z,99.90
2023-02-15T18:35:31.117Z,99.90
2023-02-15T18:38:00.134Z,99.90
2023-02-15T18:40:29.710Z,99.90
2023-02-15T18:42:57.532Z,99.90
2023-02-15T18:45:28.578Z,99.90
2023-02-15T18:47:56.386Z,99.90
2023-02-15T18:50:33.832Z,99.90
2023-02-15T18:53:03.529Z,99.90
2023-02-15T18:55:32.513Z,99.90
2023-02-15T18:58:01.095Z,99.90
2023-02-15T19:00:30.060Z,99.90
2023-02-15T19:02:58.361Z,99.90
2023-02-15T19:05:29.407Z,99.90
2023-02-15T19:07:58.405Z,99.90
2023-02-15T19:10:28.527Z,99.90
2023-02-15T19:12:56.742Z,99.90
2023-02-15T19:15:27.144Z,99.90
2023-02-15T19:17:55.495Z,99.90
2023-02-15T19:20:25.149Z,99.90
2023-02-15T19:22:56.909Z,99.90
2023-02-15T19:25:27.389Z,99.90
2023-02-15T19:27:56.357Z,99.90
2023-02-15T19:30:28.641Z,99.90
2023-02-15T19:32:56.841Z,99.90
2023-02-15T19:35:27.610Z,99.90
2023-02-15T19:37:58.980Z,99.90
2023-02-15T19:40:28.896Z,99.90
2023-02-15T19:42:57.237Z,99.90
2023-02-15T19:45:27.070Z,99.90
2023-02-15T19:47:55.222Z,99.90
2023-02-15T19:50:25.696Z,99.90
2023-02-15T19:52:53.852Z,99.90
2023-02-15T19:55:26.176Z,99.90
2023-02-15T19:57:55.430Z,99.90
2023-02-15T20:00:25.782Z,99.90
2023-02-15T20:02:54.324Z,99.90
2023-02-15T20:05:22.604Z,99.90
2023-02-15T20:07:52.390Z,99.90
2023-02-15T20:10:23.667Z,99.90
2023-02-15T20:12:51.824Z,99.90
2023-02-15T20:15:25.103Z,99.90
2023-02-15T20:17:53.253Z,99.90
2023-02-15T20:20:21.994Z,99.90
2023-02-15T20:22:52.164Z,99.90
2023-02-15T20:25:26.052Z,99.90
2023-02-15T20:27:54.589Z,99.90
2023-02-15T20:30:25.187Z,99.90
2023-02-15T20:32:53.412Z,99.90
2023-02-15T20:35:23.019Z,99.90
2023-02-15T20:37:53.968Z,99.90
2023-02-15T20:40:25.760Z,99.90
2023-02-15T20:42:53.800Z,99.90
2023-02-15T20:45:23.552Z,99.90
2023-02-15T20:47:52.679Z,99.90
2023-02-15T20:50:22.627Z,99.90
2023-02-15T20:52:52.267Z,99.90
2023-02-15T20:55:21.951Z,99.90
2023-02-15T20:57:51.288Z,99.90
2023-02-15T21:00:21.678Z,99.90
2023-02-15T21:02:51.620Z,99.90
2023-02-15T21:05:21.415Z,99.90
2023-02-15T21:07:50.149Z,99.90
2023-02-15T21:10:20.677Z,99.90
2023-02-15T21:12:49.294Z,99.90
2023-02-15T21:15:31.875Z,99.90
2023-02-15T21:18:01.408Z,99.90
2023-02-15T21:20:31.018Z,99.90
2023-02-15T21:23:01.255Z,99.90
2023-02-15T21:25:33.067Z,99.90
2023-02-15T21:28:00.802Z,99.90
2023-02-15T21:30:30.640Z,99.90
2023-02-15T21:32:58.383Z,99.90
2023-02-15T21:35:26.704Z,99.90
2023-02-15T21:37:55.149Z,99.90
2023-02-15T21:40:27.003Z,99.90
2023-02-15T21:43:12.515Z,99.90
2023-02-15T21:46:10.907Z,99.90
2023-02-15T21:48:38.944Z,99.90
2023-02-15T21:51:24.426Z,99.90
2023-02-15T21:53:52.194Z,99.90
2023-02-15T21:56:22.358Z,99.90
2023-02-15T21:58:50.351Z,99.90
2023-02-15T22:01:22.809Z,99.90
2023-02-15T22:03:51.318Z,99.90
2023-02-15T22:06:19.331Z,99.90
2023-02-15T22:08:47.936Z,99.90
2023-02-15T22:11:18.345Z,99.90
2023-02-15T22:13:47.080Z,99.90
2023-02-15T22:16:18.360Z,99.90
2023-02-15T22:18:48.081Z,99.90
2023-02-15T22:21:16.748Z,99.90
2023-02-15T22:23:44.465Z,99.90
2023-02-15T22:26:17.947Z,99.90
2023-02-15T22:28:45.824Z,99.90
2023-02-15T22:31:16.617Z,99.90
2023-02-15T22:33:45.491Z,99.90
2023-02-15T22:36:24.700Z,99.90
2023-02-15T22:38:52.874Z,99.90
2023-02-15T22:41:21.202Z,99.90
2023-02-15T22:43:50.269Z,99.90
2023-02-15T22:46:21.038Z,99.90
2023-02-15T22:48:49.677Z,99.90
2023-02-15T22:51:21.262Z,99.90
2023-02-15T22:53:51.774Z,99.90
2023-02-15T22:56:22.383Z,99.90
2023-02-15T22:58:50.515Z,99.90
2023-02-15T23:01:25.511Z,99.90
2023-02-15T23:03:53.318Z,99.90
2023-02-15T23:06:22.466Z,99.90
2023-02-15T23:08:50.175Z,99.90
2023-02-15T23:11:19.225Z,99.90
2023-02-15T23:13:49.674Z,99.90
2023-02-15T23:16:19.300Z,99.90
2023-02-15T23:18:48.137Z,99.90
2023-02-15T23:21:21.356Z,99.90
2023-02-15T23:23:52.488Z,99.90
2023-02-15T23:26:22.620Z,99.90
2023-02-15T23:28:51.627Z,99.90
2023-02-15T23:31:22.145Z,99.90
2023-02-15T23:33:50.913Z,99.90
2023-02-15T23:36:37.358Z,99.90
2023-02-15T23:39:28.798Z,99.90
2023-02-15T23:41:56.652Z,99.90
2023-02-15T23:44:24.454Z,99.90
2023-02-15T23:46:52.349Z,99.90
2023-02-15T23:49:21.025Z,99.90
2023-02-15T23:51:50.962Z,99.90
2023-02-15T23:54:22.121Z,99.90
2023-02-15T23:56:52.169Z,99.90
2023-02-15T23:59:22.494Z,99.90
